Drawsko — C6XP2 — position and weather

sailwx.info

Track history (hours):
 
Tides and Currents Weather Stations Pressure Air Temp Water Temp Dewpoint Dewpoint Depression Visibility Wind Speed Wind Dir Waves Ship Positions

Drawsko

Last reported at 2018-Jan-23 03:45 UTC. Time now 2018-Feb-21 05:33 UTC.
Position N 27°48' W 015°17'.
Warning: this ship's position is 29 days out of date.

Length 189 m; draft 10 m.

Type: Cargo ship. MMSI: 311017900.

Date/timePositionNaut miles runAvg speedWind from/ knotsBaromVisibWave heightAir tempDewpointWater temp
2018-Jan-23 03:45N 27°48' W 015°17'413.4
2018-Jan-23 03:27N 27°52' W 015°16'613.2
2018-Jan-23 03:00N 27°58' W 015°16'612.4
2018-Jan-23 02:30N 28°03' W 015°19'5 9.6
2018-Jan-23 02:00N 28°06' W 015°24'0 0.7
2018-Jan-23 01:27N 28°06' W 015°24'0 0.2
2018-Jan-23 01:00N 28°06' W 015°24'0 0.0
2018-Jan-23 00:30N 28°06' W 015°24'0 0.0
2018-Jan-23 00:00N 28°06' W 015°24'0 0.0
2018-Jan-22 23:30N 28°06' W 015°24'0 0.0
2018-Jan-22 22:57N 28°06' W 015°24'0 0.0
2018-Jan-22 22:30N 28°06' W 015°24'0 0.0
2018-Jan-22 22:00N 28°06' W 015°24'0 0.0
2018-Jan-22 21:30N 28°06' W 015°24'0 0.0
2018-Jan-22 21:00N 28°06' W 015°24'0 0.0
2018-Jan-22 20:18N 28°06' W 015°24'0 0.0
2018-Jan-22 20:00N 28°06' W 015°24'0 0.4
2018-Jan-22 19:30N 28°06' W 015°24'2 3.5
2018-Jan-22 19:00N 28°07' W 015°22'1 1.9
2018-Jan-22 18:30N 28°08' W 015°22'4 7.9
2018-Jan-22 18:00N 28°11' W 015°18'713.2
2018-Jan-22 17:30N 28°16' W 015°13'713.3
2018-Jan-22 16:58N 28°21' W 015°08'613.4
2018-Jan-22 16:30N 28°25' W 015°03'713.5
2018-Jan-22 16:01N 28°30' W 014°57'713.3
2018-Jan-22 15:31N 28°34' W 014°52'913.3
2018-Jan-22 14:50N 28°41' W 014°45'513.3
2018-Jan-22 14:30N 28°44' W 014°41'613.2
2018-Jan-22 14:00N 28°49' W 014°36'612.9
2018-Jan-22 13:30N 28°53' W 014°31'713.1
2018-Jan-22 13:00N 28°58' W 014°25'1113.3
2018-Jan-22 12:10N 29°06' W 014°17'413.0
2018-Jan-22 11:54N 29°08' W 014°14'513.0
2018-Jan-22 11:31N 29°12' W 014°10'4813.3
2018-Jan-22 07:54N 29°46' W 013°30'513.3
2018-Jan-22 07:30N 29°49' W 013°26'2913.4
2018-Jan-22 05:20N 30°09' W 013°01'413.4
2018-Jan-22 05:00N 30°12' W 012°57'713.4
2018-Jan-22 04:30N 30°16' W 012°52'1313.3
2018-Jan-22 03:33N 30°25' W 012°41'013.4
2018-Jan-22 03:31N 30°25' W 012°40'713.3
2018-Jan-22 03:00N 30°29' W 012°34'1113.1
2018-Jan-22 02:09N 30°37' W 012°25'213.3
2018-Jan-22 02:00N 30°38' W 012°23'713.3
2018-Jan-22 01:30N 30°43' W 012°17'1013.2
2018-Jan-22 00:46N 30°49' W 012°09'813.2
2018-Jan-22 00:09N 30°55' W 012°02'213.8
2018-Jan-22 00:00N 30°56' W 012°00'713.3
2018-Jan-21 23:30N 31°00' W 011°55'713.2
2018-Jan-21 23:00N 31°05' W 011°49'713.4
2018-Jan-21 22:27N 31°10' W 011°43'613.3
2018-Jan-21 22:01N 31°14' W 011°38'713.3
2018-Jan-21 21:30N 31°19' W 011°32'713.3
2018-Jan-21 21:00N 31°23' W 011°26'713.2
2018-Jan-21 20:30N 31°28' W 011°20'713.5
2018-Jan-21 19:59N 31°32' W 011°14'613.4
2018-Jan-21 19:30N 31°37' W 011°09'713.0
2018-Jan-21 18:58N 31°41' W 011°03'613.1
2018-Jan-21 18:30N 31°45' W 010°57'713.0
2018-Jan-21 17:58N 31°50' W 010°51'712.9
2018-Jan-21 17:27N 31°55' W 010°46'613.0
2018-Jan-21 17:00N 31°59' W 010°41'713.3
2018-Jan-21 16:30N 32°03' W 010°35'713.4
2018-Jan-21 16:00N 32°07' W 010°29'1713.3
2018-Jan-21 14:43N 32°19' W 010°14'413.5
2018-Jan-21 14:28N 32°21' W 010°11'3113.2
2018-Jan-21 12:06N 32°43' W 009°43'213.5
2018-Jan-21 11:57N 32°44' W 009°42'613.3
2018-Jan-21 11:30N 32°48' W 009°36'  
Track history (hours):
 
Tides and Currents Weather Stations Pressure Air Temp Water Temp Dewpoint Dewpoint Depression Visibility Wind Speed Wind Dir Waves Ship Positions

Drawsko

Last reported at 2018-Jan-23 03:45 UTC. Time now 2018-Feb-21 05:33 UTC.
Position N 27°48' W 015°17'.
Warning: this ship's position is 29 days out of date.

Length 189 m; draft 10 m.

Type: Cargo ship. MMSI: 311017900.

Date/timePositionNaut miles runAvg speedWind from/ knotsBaromVisibWave heightAir tempDewpointWater temp
2018-Jan-23 03:45N 27°48' W 015°17'413.4
2018-Jan-23 03:27N 27°52' W 015°16'613.2
2018-Jan-23 03:00N 27°58' W 015°16'612.4
2018-Jan-23 02:30N 28°03' W 015°19'5 9.6
2018-Jan-23 02:00N 28°06' W 015°24'0 0.7
2018-Jan-23 01:27N 28°06' W 015°24'0 0.2
2018-Jan-23 01:00N 28°06' W 015°24'0 0.0
2018-Jan-23 00:30N 28°06' W 015°24'0 0.0
2018-Jan-23 00:00N 28°06' W 015°24'0 0.0
2018-Jan-22 23:30N 28°06' W 015°24'0 0.0
2018-Jan-22 22:57N 28°06' W 015°24'0 0.0
2018-Jan-22 22:30N 28°06' W 015°24'0 0.0
2018-Jan-22 22:00N 28°06' W 015°24'0 0.0
2018-Jan-22 21:30N 28°06' W 015°24'0 0.0
2018-Jan-22 21:00N 28°06' W 015°24'0 0.0
2018-Jan-22 20:18N 28°06' W 015°24'0 0.0
2018-Jan-22 20:00N 28°06' W 015°24'0 0.4
2018-Jan-22 19:30N 28°06' W 015°24'2 3.5
2018-Jan-22 19:00N 28°07' W 015°22'1 1.9
2018-Jan-22 18:30N 28°08' W 015°22'4 7.9
2018-Jan-22 18:00N 28°11' W 015°18'713.2
2018-Jan-22 17:30N 28°16' W 015°13'713.3
2018-Jan-22 16:58N 28°21' W 015°08'613.4
2018-Jan-22 16:30N 28°25' W 015°03'713.5
2018-Jan-22 16:01N 28°30' W 014°57'713.3
2018-Jan-22 15:31N 28°34' W 014°52'913.3
2018-Jan-22 14:50N 28°41' W 014°45'513.3
2018-Jan-22 14:30N 28°44' W 014°41'613.2
2018-Jan-22 14:00N 28°49' W 014°36'612.9
2018-Jan-22 13:30N 28°53' W 014°31'713.1
2018-Jan-22 13:00N 28°58' W 014°25'1113.3
2018-Jan-22 12:10N 29°06' W 014°17'413.0
2018-Jan-22 11:54N 29°08' W 014°14'513.0
2018-Jan-22 11:31N 29°12' W 014°10'4813.3
2018-Jan-22 07:54N 29°46' W 013°30'513.3
2018-Jan-22 07:30N 29°49' W 013°26'2913.4
2018-Jan-22 05:20N 30°09' W 013°01'413.4
2018-Jan-22 05:00N 30°12' W 012°57'713.4
2018-Jan-22 04:30N 30°16' W 012°52'1313.3
2018-Jan-22 03:33N 30°25' W 012°41'013.4
2018-Jan-22 03:31N 30°25' W 012°40'713.3
2018-Jan-22 03:00N 30°29' W 012°34'1113.1
2018-Jan-22 02:09N 30°37' W 012°25'213.3
2018-Jan-22 02:00N 30°38' W 012°23'713.3
2018-Jan-22 01:30N 30°43' W 012°17'1013.2
2018-Jan-22 00:46N 30°49' W 012°09'813.2
2018-Jan-22 00:09N 30°55' W 012°02'213.8
2018-Jan-22 00:00N 30°56' W 012°00'713.3
2018-Jan-21 23:30N 31°00' W 011°55'713.2
2018-Jan-21 23:00N 31°05' W 011°49'713.4
2018-Jan-21 22:27N 31°10' W 011°43'613.3
2018-Jan-21 22:01N 31°14' W 011°38'713.3
2018-Jan-21 21:30N 31°19' W 011°32'713.3
2018-Jan-21 21:00N 31°23' W 011°26'713.2
2018-Jan-21 20:30N 31°28' W 011°20'713.5
2018-Jan-21 19:59N 31°32' W 011°14'613.4
2018-Jan-21 19:30N 31°37' W 011°09'713.0
2018-Jan-21 18:58N 31°41' W 011°03'613.1
2018-Jan-21 18:30N 31°45' W 010°57'713.0
2018-Jan-21 17:58N 31°50' W 010°51'712.9
2018-Jan-21 17:27N 31°55' W 010°46'613.0
2018-Jan-21 17:00N 31°59' W 010°41'713.3
2018-Jan-21 16:30N 32°03' W 010°35'713.4
2018-Jan-21 16:00N 32°07' W 010°29'1713.3
2018-Jan-21 14:43N 32°19' W 010°14'413.5
2018-Jan-21 14:28N 32°21' W 010°11'3113.2
2018-Jan-21 12:06N 32°43' W 009°43'213.5
2018-Jan-21 11:57N 32°44' W 009°42'613.3
2018-Jan-21 11:30N 32°48' W 009°36'  

Dump ship's entire track history